createdAt,value
2022-08-09T00:02:03.109Z,100857.03
2022-08-09T00:07:07.671Z,100852.25
2022-08-09T00:12:22.340Z,100847.69
2022-08-09T00:18:05.341Z,100847.00
2022-08-09T00:22:47.371Z,100834.28
2022-08-09T00:27:48.769Z,100848.13
2022-08-09T00:32:50.098Z,100828.69
2022-08-09T00:37:52.180Z,100828.09
2022-08-09T00:44:17.020Z,100821.81
2022-08-09T00:48:19.553Z,100834.88
2022-08-09T00:53:23.980Z,100828.00
2022-08-09T00:58:27.849Z,100829.06
2022-08-09T01:03:54.819Z,100833.06
2022-08-09T01:09:19.740Z,100844.09
2022-08-09T01:14:42.699Z,100836.22
2022-08-09T01:20:08.177Z,100839.41
2022-08-09T01:25:21.875Z,100832.53
2022-08-09T01:30:33.499Z,100834.06
2022-08-09T01:36:02.074Z,100831.03
2022-08-09T01:41:16.900Z,100841.56
2022-08-09T01:46:30.161Z,100838.25
2022-08-09T01:51:35.472Z,100833.91
2022-08-09T01:56:40.473Z,100831.59
2022-08-09T02:01:59.556Z,100824.53
2022-08-09T02:07:15.475Z,100831.28
2022-08-09T02:12:22.386Z,100829.41
2022-08-09T02:18:00.271Z,100842.38
2022-08-09T02:22:56.556Z,100845.75
2022-08-09T02:28:05.329Z,100851.13
2022-08-09T02:33:18.409Z,100852.44
2022-08-09T02:38:28.968Z,100840.13
2022-08-09T02:43:54.316Z,100845.84
2022-08-09T02:49:05.681Z,100846.84
2022-08-09T02:54:10.427Z,100847.91
2022-08-09T02:59:26.177Z,100840.13
2022-08-09T03:04:37.878Z,100832.06
2022-08-09T03:09:42.662Z,100840.16
2022-08-09T03:14:46.049Z,100840.81
2022-08-09T03:19:59.240Z,100846.44
2022-08-09T03:25:06.174Z,100839.31
2022-08-09T03:30:33.458Z,100839.16
2022-08-09T03:36:11.761Z,100852.81
2022-08-09T03:40:58.559Z,100856.03
2022-08-09T03:46:04.594Z,100857.25
2022-08-09T03:51:55.509Z,100864.16
2022-08-09T03:56:46.589Z,100863.13
2022-08-09T04:01:50.177Z,100873.59
2022-08-09T04:06:52.007Z,100872.44
2022-08-09T04:11:54.069Z,100881.06
2022-08-09T04:16:57.498Z,100869.88
2022-08-09T04:21:59.516Z,100883.91
2022-08-09T04:27:00.902Z,100882.75
2022-08-09T04:32:02.260Z,100885.44
2022-08-09T04:37:07.089Z,100892.69
2022-08-09T04:42:09.471Z,100894.91
2022-08-09T04:47:10.841Z,100899.63
2022-08-09T04:52:18.476Z,100908.34
2022-08-09T04:57:58.444Z,100916.16
2022-08-09T05:02:52.596Z,100912.06
2022-08-09T05:07:54.413Z,100922.84
2022-08-09T05:12:57.217Z,100929.28
2022-08-09T05:18:39.941Z,100929.84
2022-08-09T05:23:53.883Z,100937.44
2022-08-09T05:28:44.643Z,100932.56
2022-08-09T05:33:46.063Z,100940.66
2022-08-09T05:38:47.691Z,100952.47
2022-08-09T05:43:50.597Z,100950.25
2022-08-09T05:48:58.635Z,100955.00
2022-08-09T05:54:00.708Z,100949.72
2022-08-09T05:59:02.096Z,100947.56
2022-08-09T06:04:05.690Z,100961.38
2022-08-09T06:09:23.182Z,100971.00
2022-08-09T06:14:28.754Z,100970.47
2022-08-09T06:19:30.062Z,100986.28
2022-08-09T06:24:33.842Z,100984.69
2022-08-09T06:29:47.918Z,100982.16
2022-08-09T06:34:58.018Z,100988.69
2022-08-09T06:40:00.619Z,101001.97
2022-08-09T06:46:07.128Z,100994.78
2022-08-09T06:50:26.889Z,100997.78
2022-08-09T06:55:33.189Z,100991.16
2022-08-09T07:00:54.117Z,101003.03
2022-08-09T07:06:03.771Z,101000.88
2022-08-09T07:11:06.573Z,100998.28
2022-08-09T07:16:41.009Z,101009.25
2022-08-09T07:21:30.999Z,101006.34
2022-08-09T07:26:35.517Z,101007.75
2022-08-09T07:31:38.537Z,101008.72
2022-08-09T07:36:47.197Z,101013.72
2022-08-09T07:41:48.811Z,101008.84
2022-08-09T07:46:50.180Z,101007.81
2022-08-09T07:52:06.086Z,101002.22
2022-08-09T07:57:14.999Z,101011.44
2022-08-09T08:02:19.934Z,101007.78
2022-08-09T08:08:43.766Z,101011.25
2022-08-09T08:12:45.152Z,101009.31
2022-08-09T08:17:53.828Z,101011.31
2022-08-09T08:23:03.763Z,101011.75
2022-08-09T08:28:18.338Z,101004.03
2022-08-09T08:33:40.830Z,101002.34
2022-08-09T08:38:54.573Z,100994.63
2022-08-09T08:44:03.429Z,101010.00
2022-08-09T08:49:07.398Z,101008.13
2022-08-09T08:54:20.563Z,101001.97
2022-08-09T08:59:46.493Z,100996.25
2022-08-09T09:04:52.686Z,100999.91
2022-08-09T09:10:01.877Z,100996.91
2022-08-09T09:15:07.055Z,100996.66
2022-08-09T09:20:10.444Z,101007.31
2022-08-09T09:26:04.363Z,100998.09
2022-08-09T09:30:57.437Z,100990.13
2022-08-09T09:36:04.027Z,100988.69
2022-08-09T09:41:33.533Z,100983.16
2022-08-09T09:46:51.939Z,100994.56
2022-08-09T09:52:02.434Z,100991.78
2022-08-09T09:58:04.059Z,100983.44
2022-08-09T10:02:45.950Z,100984.22
2022-08-09T10:08:11.124Z,100976.03
2022-08-09T10:13:10.150Z,100974.91
2022-08-09T10:18:12.617Z,100964.91
2022-08-09T10:23:20.374Z,100960.91
2022-08-09T10:28:23.569Z,100954.22
2022-08-09T10:33:29.877Z,100953.41
2022-08-09T10:38:56.300Z,100950.72
2022-08-09T10:44:02.314Z,100946.41
2022-08-09T10:49:20.508Z,100952.13
2022-08-09T10:54:24.676Z,100950.03
2022-08-09T10:59:31.089Z,100945.28
2022-08-09T11:04:35.794Z,100927.59
2022-08-09T11:09:47.976Z,100927.06
2022-08-09T11:14:55.890Z,100914.66
2022-08-09T11:20:22.190Z,100916.94
2022-08-09T11:25:44.556Z,100913.34
2022-08-09T11:30:48.016Z,100914.13
2022-08-09T11:35:55.478Z,100919.16
2022-08-09T11:40:57.177Z,100911.41
2022-08-09T11:46:02.183Z,100906.31
2022-08-09T11:52:53.681Z,100909.31
2022-08-09T11:56:41.630Z,100895.56
2022-08-09T12:02:21.232Z,100912.91
2022-08-09T12:07:08.512Z,100902.75
2022-08-09T12:12:20.375Z,100908.09
2022-08-09T12:17:28.246Z,100896.16
2022-08-09T12:22:44.317Z,100889.81
2022-08-09T12:29:11.582Z,100892.59
2022-08-09T12:33:07.520Z,100875.41
2022-08-09T12:38:29.697Z,100882.59
2022-08-09T12:44:05.234Z,100868.72
2022-08-09T12:49:02.752Z,100861.72
2022-08-09T12:54:05.569Z,100870.81
2022-08-09T12:59:11.758Z,100857.19
2022-08-09T13:04:37.070Z,100866.25
2022-08-09T13:09:38.101Z,100862.88
2022-08-09T13:14:48.830Z,100868.28
2022-08-09T13:20:09.096Z,100861.63
2022-08-09T13:25:15.067Z,100854.38
2022-08-09T13:30:50.691Z,100855.06
2022-08-09T13:36:38.602Z,100839.31
2022-08-09T13:41:54.736Z,100835.34
2022-08-09T13:47:14.463Z,100839.53
2022-08-09T13:52:01.032Z,100833.16
2022-08-09T13:57:06.504Z,100825.53
2022-08-09T14:02:08.448Z,100826.59
2022-08-09T14:07:11.511Z,100825.19
2022-08-09T14:12:15.364Z,100821.50
2022-08-09T14:17:17.333Z,100820.41
2022-08-09T14:22:24.747Z,100822.16
2022-08-09T14:27:26.748Z,100811.31
2022-08-09T14:32:38.060Z,100807.47
2022-08-09T14:37:41.353Z,100813.94
2022-08-09T14:43:01.958Z,100809.31
2022-08-09T14:48:04.898Z,100810.00
2022-08-09T14:53:11.607Z,100806.88
2022-08-09T14:58:14.852Z,100806.34
2022-08-09T15:03:20.474Z,100810.72
2022-08-09T15:08:23.913Z,100792.06
2022-08-09T15:13:25.630Z,100792.16
2022-08-09T15:18:31.273Z,100781.56
2022-08-09T15:24:05.949Z,100785.91
2022-08-09T15:28:54.743Z,100789.25
2022-08-09T15:34:04.402Z,100795.63
2022-08-09T15:39:20.411Z,100791.94
2022-08-09T15:44:22.995Z,100785.19
2022-08-09T15:49:24.524Z,100781.84
2022-08-09T15:54:44.813Z,100773.28
2022-08-09T15:59:51.928Z,100773.53
2022-08-09T16:04:53.336Z,100766.97
2022-08-09T16:10:04.101Z,100762.44
2022-08-09T16:16:11.518Z,100773.44
2022-08-09T16:20:30.492Z,100767.25
2022-08-09T16:25:39.683Z,100763.72
2022-08-09T16:30:44.341Z,100766.47
2022-08-09T16:35:57.188Z,100762.31
2022-08-09T16:41:03.882Z,100763.28
2022-08-09T16:46:06.097Z,100770.09
2022-08-09T16:51:14.041Z,100768.09
2022-08-09T16:56:16.830Z,100772.41
2022-08-09T17:01:23.788Z,100770.75
2022-08-09T17:06:29.460Z,100770.38
2022-08-09T17:11:41.644Z,100763.34
2022-08-09T17:16:43.689Z,100766.66
2022-08-09T17:21:46.738Z,100764.16
2022-08-09T17:26:53.525Z,100767.00
2022-08-09T17:31:55.357Z,100782.63
2022-08-09T17:36:56.746Z,100783.56
2022-08-09T17:42:03.940Z,100783.94
2022-08-09T17:47:05.930Z,100790.81
2022-08-09T17:52:22.077Z,100787.41
2022-08-09T17:58:02.868Z,100793.00
2022-08-09T18:02:50.358Z,100805.44
2022-08-09T18:08:00.162Z,100807.66
2022-08-09T18:13:43.271Z,100801.06
2022-08-09T18:18:32.575Z,100792.75
2022-08-09T18:24:12.646Z,100802.22
2022-08-09T18:30:39.329Z,100804.47
2022-08-09T18:34:17.338Z,100810.84
2022-08-09T18:39:25.534Z,100813.03
2022-08-09T18:44:26.958Z,100806.88
2022-08-09T18:49:28.451Z,100808.06
2022-08-09T18:54:33.917Z,100814.47
2022-08-09T18:59:37.254Z,100826.97
2022-08-09T19:05:03.787Z,100834.22
2022-08-09T19:10:15.778Z,100839.56
2022-08-09T19:15:19.226Z,100842.13
2022-08-09T19:20:21.060Z,100843.22
2022-08-09T19:25:42.782Z,100848.72
2022-08-09T19:30:45.382Z,100859.41
2022-08-09T19:35:57.476Z,100866.78
2022-08-09T19:41:01.869Z,100872.69
2022-08-09T19:46:04.199Z,100856.81
2022-08-09T19:51:06.072Z,100869.44
2022-08-09T19:56:08.096Z,100879.31
2022-08-09T20:01:17.454Z,100886.28
2022-08-09T20:06:22.532Z,100886.28
2022-08-09T20:11:43.423Z,100897.63
2022-08-09T20:16:54.452Z,100901.44
2022-08-09T20:22:00.038Z,100906.28
2022-08-09T20:27:05.777Z,100897.69
2022-08-09T20:32:28.775Z,100896.03
2022-08-09T20:38:19.036Z,100906.75
2022-08-09T20:43:12.296Z,100911.72
2022-08-09T20:48:21.248Z,100915.28
2022-08-09T20:53:36.414Z,100919.25
2022-08-09T20:58:39.224Z,100921.94
2022-08-09T21:05:49.831Z,100921.94
2022-08-09T21:09:13.487Z,100929.03
2022-08-09T21:14:15.359Z,100930.66
2022-08-09T21:20:18.878Z,100928.09
2022-08-09T21:25:00.976Z,100922.44
2022-08-09T21:30:02.683Z,100929.53
2022-08-09T21:35:04.407Z,100919.44
2022-08-09T21:40:10.837Z,100932.19
2022-08-09T21:45:17.323Z,100934.66
2022-08-09T21:50:22.997Z,100935.44
2022-08-09T21:55:35.298Z,100936.22
2022-08-09T22:00:36.998Z,100938.69
2022-08-09T22:05:42.209Z,100935.50
2022-08-09T22:11:49.318Z,100936.94
2022-08-09T22:16:08.581Z,100948.81
2022-08-09T22:21:21.869Z,100950.91
2022-08-09T22:26:35.449Z,100947.63
2022-08-09T22:31:50.122Z,100950.94
2022-08-09T22:36:59.383Z,100953.63
2022-08-09T22:42:00.733Z,100949.22
2022-08-09T22:48:11.989Z,100947.47
2022-08-09T22:52:23.426Z,100947.53
2022-08-09T22:57:35.579Z,100949.81
2022-08-09T23:02:37.783Z,100951.59
2022-08-09T23:08:22.118Z,100957.88
2022-08-09T23:13:25.252Z,100956.84
2022-08-09T23:18:26.567Z,100945.00
2022-08-09T23:23:27.932Z,100948.75
2022-08-09T23:28:29.359Z,100945.25
2022-08-09T23:33:30.821Z,100955.06
2022-08-09T23:38:32.193Z,100947.19
2022-08-09T23:43:33.622Z,100951.94
2022-08-09T23:48:34.942Z,100942.63
2022-08-09T23:53:38.493Z,100952.38
2022-08-09T23:58:40.158Z,100944.94
